sensor_id;sensor_type;location;lat;lon;timestamp;P1;durP1;ratioP1;P2;durP2;ratioP2
15629;SDS011;7914;50.842;0.166;2022-10-31T00:01:09;3.03;;;2.93;;
15629;SDS011;7914;50.842;0.166;2022-10-31T00:03:37;3.07;;;2.97;;
15629;SDS011;7914;50.842;0.166;2022-10-31T00:06:03;3.10;;;3.00;;
15629;SDS011;7914;50.842;0.166;2022-10-31T00:08:28;3.10;;;3.00;;
15629;SDS011;7914;50.842;0.166;2022-10-31T00:10:54;3.10;;;3.00;;
15629;SDS011;7914;50.842;0.166;2022-10-31T00:13:20;3.00;;;2.90;;
15629;SDS011;7914;50.842;0.166;2022-10-31T00:15:45;2.87;;;2.77;;
15629;SDS011;7914;50.842;0.166;2022-10-31T00:18:11;3.07;;;2.97;;
15629;SDS011;7914;50.842;0.166;2022-10-31T00:20:37;3.10;;;3.00;;
15629;SDS011;7914;50.842;0.166;2022-10-31T00:23:03;3.20;;;3.10;;
15629;SDS011;7914;50.842;0.166;2022-10-31T00:25:32;3.20;;;3.10;;
15629;SDS011;7914;50.842;0.166;2022-10-31T00:28:02;3.27;;;3.17;;
15629;SDS011;7914;50.842;0.166;2022-10-31T00:30:28;3.20;;;3.10;;
15629;SDS011;7914;50.842;0.166;2022-10-31T00:32:54;3.30;;;3.20;;
15629;SDS011;7914;50.842;0.166;2022-10-31T00:35:19;3.10;;;3.00;;
15629;SDS011;7914;50.842;0.166;2022-10-31T00:37:45;3.10;;;3.00;;
15629;SDS011;7914;50.842;0.166;2022-10-31T00:40:11;3.30;;;3.20;;
15629;SDS011;7914;50.842;0.166;2022-10-31T00:42:37;3.40;;;3.30;;
15629;SDS011;7914;50.842;0.166;2022-10-31T00:45:04;3.30;;;3.20;;
15629;SDS011;7914;50.842;0.166;2022-10-31T00:47:30;3.20;;;3.10;;
15629;SDS011;7914;50.842;0.166;2022-10-31T00:49:55;3.10;;;3.00;;
15629;SDS011;7914;50.842;0.166;2022-10-31T00:52:21;3.30;;;3.20;;
15629;SDS011;7914;50.842;0.166;2022-10-31T00:54:46;3.33;;;3.23;;
15629;SDS011;7914;50.842;0.166;2022-10-31T00:57:12;3.07;;;2.97;;
15629;SDS011;7914;50.842;0.166;2022-10-31T00:59:38;3.10;;;3.00;;
15629;SDS011;7914;50.842;0.166;2022-10-31T01:02:03;3.00;;;2.90;;
15629;SDS011;7914;50.842;0.166;2022-10-31T01:04:29;3.00;;;2.90;;
15629;SDS011;7914;50.842;0.166;2022-10-31T01:06:54;3.17;;;3.07;;
15629;SDS011;7914;50.842;0.166;2022-10-31T01:09:20;3.40;;;3.30;;
15629;SDS011;7914;50.842;0.166;2022-10-31T01:11:46;3.40;;;3.30;;
15629;SDS011;7914;50.842;0.166;2022-10-31T01:14:12;3.40;;;3.30;;
15629;SDS011;7914;50.842;0.166;2022-10-31T01:16:38;3.53;;;3.43;;
15629;SDS011;7914;50.842;0.166;2022-10-31T01:19:04;3.30;;;3.20;;
15629;SDS011;7914;50.842;0.166;2022-10-31T01:21:30;3.40;;;3.30;;
15629;SDS011;7914;50.842;0.166;2022-10-31T01:23:56;3.40;;;3.30;;
15629;SDS011;7914;50.842;0.166;2022-10-31T01:26:23;3.30;;;3.20;;
15629;SDS011;7914;50.842;0.166;2022-10-31T01:28:52;3.30;;;3.20;;
15629;SDS011;7914;50.842;0.166;2022-10-31T01:31:39;3.10;;;3.00;;
15629;SDS011;7914;50.842;0.166;2022-10-31T01:34:05;3.40;;;3.30;;
15629;SDS011;7914;50.842;0.166;2022-10-31T01:36:36;3.27;;;3.17;;
15629;SDS011;7914;50.842;0.166;2022-10-31T01:39:04;3.20;;;3.10;;
15629;SDS011;7914;50.842;0.166;2022-10-31T01:41:32;3.40;;;3.30;;
15629;SDS011;7914;50.842;0.166;2022-10-31T01:44:01;3.17;;;3.07;;
15629;SDS011;7914;50.842;0.166;2022-10-31T01:48:57;3.30;;;3.20;;
15629;SDS011;7914;50.842;0.166;2022-10-31T01:51:29;3.47;;;3.37;;
15629;SDS011;7914;50.842;0.166;2022-10-31T01:54:03;3.27;;;3.17;;
15629;SDS011;7914;50.842;0.166;2022-10-31T01:56:32;3.20;;;3.10;;
15629;SDS011;7914;50.842;0.166;2022-10-31T01:59:02;3.57;;;3.47;;
15629;SDS011;7914;50.842;0.166;2022-10-31T02:01:32;3.50;;;3.40;;
15629;SDS011;7914;50.842;0.166;2022-10-31T02:03:58;3.40;;;3.30;;
15629;SDS011;7914;50.842;0.166;2022-10-31T02:06:31;3.50;;;3.40;;
15629;SDS011;7914;50.842;0.166;2022-10-31T02:09:03;3.37;;;3.27;;
15629;SDS011;7914;50.842;0.166;2022-10-31T02:11:30;3.60;;;3.50;;
15629;SDS011;7914;50.842;0.166;2022-10-31T02:13:58;3.30;;;3.20;;
15629;SDS011;7914;50.842;0.166;2022-10-31T02:16:25;3.23;;;3.13;;
15629;SDS011;7914;50.842;0.166;2022-10-31T02:18:51;3.23;;;3.13;;
15629;SDS011;7914;50.842;0.166;2022-10-31T02:21:19;3.40;;;3.30;;
15629;SDS011;7914;50.842;0.166;2022-10-31T02:40:51;3.27;;;3.17;;
15629;SDS011;7914;50.842;0.166;2022-10-31T02:46:19;3.40;;;3.30;;
15629;SDS011;7914;50.842;0.166;2022-10-31T02:48:51;3.47;;;3.37;;
15629;SDS011;7914;50.842;0.166;2022-10-31T02:51:20;3.43;;;3.33;;
15629;SDS011;7914;50.842;0.166;2022-10-31T02:53:46;3.50;;;3.40;;
15629;SDS011;7914;50.842;0.166;2022-10-31T02:56:13;3.33;;;3.23;;
15629;SDS011;7914;50.842;0.166;2022-10-31T02:58:59;3.57;;;3.47;;
15629;SDS011;7914;50.842;0.166;2022-10-31T03:01:33;3.30;;;3.20;;
15629;SDS011;7914;50.842;0.166;2022-10-31T03:04:29;3.63;;;3.53;;
15629;SDS011;7914;50.842;0.166;2022-10-31T03:10:23;3.70;;;3.60;;
15629;SDS011;7914;50.842;0.166;2022-10-31T03:13:10;3.60;;;3.50;;
15629;SDS011;7914;50.842;0.166;2022-10-31T03:15:50;3.50;;;3.40;;
15629;SDS011;7914;50.842;0.166;2022-10-31T03:18:21;3.83;;;3.73;;
15629;SDS011;7914;50.842;0.166;2022-10-31T03:20:58;3.80;;;3.70;;
15629;SDS011;7914;50.842;0.166;2022-10-31T03:23:30;3.50;;;3.40;;
15629;SDS011;7914;50.842;0.166;2022-10-31T03:26:00;3.80;;;3.70;;
15629;SDS011;7914;50.842;0.166;2022-10-31T03:28:29;3.57;;;3.47;;
15629;SDS011;7914;50.842;0.166;2022-10-31T03:30:59;3.50;;;3.40;;
15629;SDS011;7914;50.842;0.166;2022-10-31T03:33:28;3.70;;;3.60;;
15629;SDS011;7914;50.842;0.166;2022-10-31T03:35:58;3.70;;;3.60;;
15629;SDS011;7914;50.842;0.166;2022-10-31T03:38:26;3.63;;;3.53;;
15629;SDS011;7914;50.842;0.166;2022-10-31T03:40:54;3.80;;;3.70;;
15629;SDS011;7914;50.842;0.166;2022-10-31T03:43:24;4.10;;;4.00;;
15629;SDS011;7914;50.842;0.166;2022-10-31T03:45:55;4.10;;;4.00;;
15629;SDS011;7914;50.842;0.166;2022-10-31T03:48:21;4.40;;;4.20;;
15629;SDS011;7914;50.842;0.166;2022-10-31T03:53:47;4.00;;;3.90;;
15629;SDS011;7914;50.842;0.166;2022-10-31T03:56:18;4.00;;;3.90;;
15629;SDS011;7914;50.842;0.166;2022-10-31T03:58:58;4.30;;;4.10;;
15629;SDS011;7914;50.842;0.166;2022-10-31T04:01:41;4.30;;;4.10;;
15629;SDS011;7914;50.842;0.166;2022-10-31T04:04:11;3.73;;;3.63;;
15629;SDS011;7914;50.842;0.166;2022-10-31T04:06:38;3.80;;;3.70;;
15629;SDS011;7914;50.842;0.166;2022-10-31T04:09:07;3.80;;;3.70;;
15629;SDS011;7914;50.842;0.166;2022-10-31T04:11:36;3.90;;;3.80;;
15629;SDS011;7914;50.842;0.166;2022-10-31T04:14:05;3.80;;;3.70;;
15629;SDS011;7914;50.842;0.166;2022-10-31T04:16:33;3.70;;;3.60;;
15629;SDS011;7914;50.842;0.166;2022-10-31T04:18:59;3.80;;;3.70;;
15629;SDS011;7914;50.842;0.166;2022-10-31T04:21:28;3.67;;;3.57;;
15629;SDS011;7914;50.842;0.166;2022-10-31T04:23:55;3.80;;;3.70;;
15629;SDS011;7914;50.842;0.166;2022-10-31T04:26:21;3.80;;;3.70;;
15629;SDS011;7914;50.842;0.166;2022-10-31T04:28:47;4.00;;;3.90;;
15629;SDS011;7914;50.842;0.166;2022-10-31T04:31:12;3.90;;;3.80;;
15629;SDS011;7914;50.842;0.166;2022-10-31T04:33:39;3.67;;;3.57;;
15629;SDS011;7914;50.842;0.166;2022-10-31T04:36:05;3.77;;;3.67;;
15629;SDS011;7914;50.842;0.166;2022-10-31T04:38:30;3.53;;;3.43;;
15629;SDS011;7914;50.842;0.166;2022-10-31T04:40:56;4.10;;;4.00;;
15629;SDS011;7914;50.842;0.166;2022-10-31T04:43:22;3.80;;;3.70;;
15629;SDS011;7914;50.842;0.166;2022-10-31T04:45:47;4.30;;;4.10;;
15629;SDS011;7914;50.842;0.166;2022-10-31T04:48:13;4.00;;;3.90;;
15629;SDS011;7914;50.842;0.166;2022-10-31T04:50:39;4.10;;;4.00;;
15629;SDS011;7914;50.842;0.166;2022-10-31T04:53:05;3.87;;;3.77;;
15629;SDS011;7914;50.842;0.166;2022-10-31T04:55:30;3.80;;;3.70;;
15629;SDS011;7914;50.842;0.166;2022-10-31T04:57:56;3.97;;;3.87;;
15629;SDS011;7914;50.842;0.166;2022-10-31T05:00:22;3.70;;;3.60;;
15629;SDS011;7914;50.842;0.166;2022-10-31T05:02:49;3.60;;;3.50;;
15629;SDS011;7914;50.842;0.166;2022-10-31T05:05:17;3.90;;;3.80;;
15629;SDS011;7914;50.842;0.166;2022-10-31T05:07:45;4.07;;;3.97;;
15629;SDS011;7914;50.842;0.166;2022-10-31T05:10:13;3.70;;;3.60;;
15629;SDS011;7914;50.842;0.166;2022-10-31T05:12:47;3.70;;;3.60;;
15629;SDS011;7914;50.842;0.166;2022-10-31T05:15:14;3.60;;;3.50;;
15629;SDS011;7914;50.842;0.166;2022-10-31T05:17:40;3.90;;;3.80;;
15629;SDS011;7914;50.842;0.166;2022-10-31T05:20:06;3.80;;;3.70;;
15629;SDS011;7914;50.842;0.166;2022-10-31T05:22:32;3.87;;;3.77;;
15629;SDS011;7914;50.842;0.166;2022-10-31T05:24:58;3.77;;;3.67;;
15629;SDS011;7914;50.842;0.166;2022-10-31T05:27:23;3.70;;;3.60;;
15629;SDS011;7914;50.842;0.166;2022-10-31T05:29:49;3.80;;;3.70;;
15629;SDS011;7914;50.842;0.166;2022-10-31T05:32:15;4.07;;;3.97;;
15629;SDS011;7914;50.842;0.166;2022-10-31T05:34:41;3.87;;;3.77;;
15629;SDS011;7914;50.842;0.166;2022-10-31T05:37:06;3.90;;;3.80;;
15629;SDS011;7914;50.842;0.166;2022-10-31T05:39:32;3.83;;;3.73;;
15629;SDS011;7914;50.842;0.166;2022-10-31T05:41:58;4.03;;;3.93;;
15629;SDS011;7914;50.842;0.166;2022-10-31T05:44:23;3.90;;;3.80;;
15629;SDS011;7914;50.842;0.166;2022-10-31T05:46:49;3.90;;;3.80;;
15629;SDS011;7914;50.842;0.166;2022-10-31T05:49:15;4.10;;;4.00;;
15629;SDS011;7914;50.842;0.166;2022-10-31T05:51:42;3.87;;;3.77;;
15629;SDS011;7914;50.842;0.166;2022-10-31T05:54:08;3.80;;;3.70;;
15629;SDS011;7914;50.842;0.166;2022-10-31T05:56:33;3.83;;;3.73;;
15629;SDS011;7914;50.842;0.166;2022-10-31T05:58:59;4.00;;;3.90;;
15629;SDS011;7914;50.842;0.166;2022-10-31T06:01:25;3.90;;;3.80;;
15629;SDS011;7914;50.842;0.166;2022-10-31T06:03:50;3.60;;;3.50;;
15629;SDS011;7914;50.842;0.166;2022-10-31T06:06:16;3.63;;;3.53;;
15629;SDS011;7914;50.842;0.166;2022-10-31T06:08:42;3.90;;;3.80;;
15629;SDS011;7914;50.842;0.166;2022-10-31T06:11:08;3.40;;;3.30;;
15629;SDS011;7914;50.842;0.166;2022-10-31T06:13:34;3.57;;;3.47;;
15629;SDS011;7914;50.842;0.166;2022-10-31T06:15:59;3.50;;;3.40;;
15629;SDS011;7914;50.842;0.166;2022-10-31T06:18:25;3.60;;;3.50;;
15629;SDS011;7914;50.842;0.166;2022-10-31T06:20:51;3.60;;;3.50;;
15629;SDS011;7914;50.842;0.166;2022-10-31T06:23:16;3.20;;;3.10;;
15629;SDS011;7914;50.842;0.166;2022-10-31T06:25:42;3.60;;;3.50;;
15629;SDS011;7914;50.842;0.166;2022-10-31T06:28:07;3.57;;;3.47;;
15629;SDS011;7914;50.842;0.166;2022-10-31T06:30:33;3.37;;;3.27;;
15629;SDS011;7914;50.842;0.166;2022-10-31T06:33:03;3.57;;;3.47;;
15629;SDS011;7914;50.842;0.166;2022-10-31T06:35:29;3.20;;;3.10;;
15629;SDS011;7914;50.842;0.166;2022-10-31T06:37:55;3.50;;;3.40;;
15629;SDS011;7914;50.842;0.166;2022-10-31T06:40:21;3.40;;;3.30;;
15629;SDS011;7914;50.842;0.166;2022-10-31T06:42:47;3.20;;;3.10;;
15629;SDS011;7914;50.842;0.166;2022-10-31T06:45:12;3.40;;;3.30;;
15629;SDS011;7914;50.842;0.166;2022-10-31T06:47:38;3.60;;;3.50;;
15629;SDS011;7914;50.842;0.166;2022-10-31T06:50:04;3.73;;;3.63;;
15629;SDS011;7914;50.842;0.166;2022-10-31T06:52:30;4.00;;;3.90;;
15629;SDS011;7914;50.842;0.166;2022-10-31T06:54:56;4.00;;;3.90;;
15629;SDS011;7914;50.842;0.166;2022-10-31T06:57:21;3.83;;;3.73;;
15629;SDS011;7914;50.842;0.166;2022-10-31T06:59:47;3.83;;;3.73;;
15629;SDS011;7914;50.842;0.166;2022-10-31T07:02:13;4.60;;;4.40;;
15629;SDS011;7914;50.842;0.166;2022-10-31T07:04:38;4.80;;;4.60;;
15629;SDS011;7914;50.842;0.166;2022-10-31T07:07:04;4.50;;;4.30;;
15629;SDS011;7914;50.842;0.166;2022-10-31T07:09:29;4.53;;;4.33;;
15629;SDS011;7914;50.842;0.166;2022-10-31T07:11:55;4.63;;;4.43;;
15629;SDS011;7914;50.842;0.166;2022-10-31T07:14:21;4.70;;;4.50;;
15629;SDS011;7914;50.842;0.166;2022-10-31T07:16:49;4.37;;;4.17;;
15629;SDS011;7914;50.842;0.166;2022-10-31T07:19:16;4.43;;;4.23;;
15629;SDS011;7914;50.842;0.166;2022-10-31T07:21:42;4.60;;;4.40;;
15629;SDS011;7914;50.842;0.166;2022-10-31T07:24:07;4.60;;;4.40;;
15629;SDS011;7914;50.842;0.166;2022-10-31T07:26:33;4.63;;;4.43;;
15629;SDS011;7914;50.842;0.166;2022-10-31T07:28:59;4.50;;;4.30;;
15629;SDS011;7914;50.842;0.166;2022-10-31T07:31:24;4.60;;;4.40;;
15629;SDS011;7914;50.842;0.166;2022-10-31T07:33:50;4.37;;;4.17;;
15629;SDS011;7914;50.842;0.166;2022-10-31T07:36:16;4.70;;;4.50;;
15629;SDS011;7914;50.842;0.166;2022-10-31T07:38:42;4.80;;;4.60;;
15629;SDS011;7914;50.842;0.166;2022-10-31T07:41:08;5.47;;;5.27;;
15629;SDS011;7914;50.842;0.166;2022-10-31T07:43:34;4.60;;;4.40;;
15629;SDS011;7914;50.842;0.166;2022-10-31T07:46:00;5.00;;;4.80;;
15629;SDS011;7914;50.842;0.166;2022-10-31T07:48:25;5.77;;;5.57;;
15629;SDS011;7914;50.842;0.166;2022-10-31T07:50:51;5.10;;;4.90;;
15629;SDS011;7914;50.842;0.166;2022-10-31T07:53:17;4.47;;;4.27;;
15629;SDS011;7914;50.842;0.166;2022-10-31T07:55:42;3.80;;;3.70;;
15629;SDS011;7914;50.842;0.166;2022-10-31T07:58:12;4.30;;;4.10;;
15629;SDS011;7914;50.842;0.166;2022-10-31T08:00:40;3.70;;;3.60;;
15629;SDS011;7914;50.842;0.166;2022-10-31T08:03:08;3.53;;;3.43;;
15629;SDS011;7914;50.842;0.166;2022-10-31T08:05:35;3.30;;;3.20;;
15629;SDS011;7914;50.842;0.166;2022-10-31T08:08:01;3.60;;;3.50;;
15629;SDS011;7914;50.842;0.166;2022-10-31T08:10:28;3.90;;;3.80;;
15629;SDS011;7914;50.842;0.166;2022-10-31T08:12:58;4.00;;;3.90;;
15629;SDS011;7914;50.842;0.166;2022-10-31T08:15:25;3.47;;;3.37;;
15629;SDS011;7914;50.842;0.166;2022-10-31T08:17:52;3.20;;;3.10;;
15629;SDS011;7914;50.842;0.166;2022-10-31T08:20:18;3.23;;;3.13;;
15629;SDS011;7914;50.842;0.166;2022-10-31T08:22:51;3.50;;;3.40;;
15629;SDS011;7914;50.842;0.166;2022-10-31T08:25:18;3.30;;;3.20;;
15629;SDS011;7914;50.842;0.166;2022-10-31T08:27:48;3.30;;;3.20;;
15629;SDS011;7914;50.842;0.166;2022-10-31T08:30:15;2.63;;;2.53;;
15629;SDS011;7914;50.842;0.166;2022-10-31T08:32:41;2.80;;;2.70;;
15629;SDS011;7914;50.842;0.166;2022-10-31T08:35:07;2.73;;;2.63;;
15629;SDS011;7914;50.842;0.166;2022-10-31T08:37:32;3.00;;;2.90;;
15629;SDS011;7914;50.842;0.166;2022-10-31T08:39:58;3.10;;;3.00;;
15629;SDS011;7914;50.842;0.166;2022-10-31T08:42:24;3.10;;;3.00;;
15629;SDS011;7914;50.842;0.166;2022-10-31T08:44:49;2.80;;;2.70;;
15629;SDS011;7914;50.842;0.166;2022-10-31T08:47:15;2.47;;;2.37;;
15629;SDS011;7914;50.842;0.166;2022-10-31T08:49:41;2.30;;;2.20;;
15629;SDS011;7914;50.842;0.166;2022-10-31T08:52:06;2.40;;;2.30;;
15629;SDS011;7914;50.842;0.166;2022-10-31T08:54:32;2.60;;;2.50;;
15629;SDS011;7914;50.842;0.166;2022-10-31T08:56:58;2.60;;;2.50;;
15629;SDS011;7914;50.842;0.166;2022-10-31T08:59:23;2.23;;;2.13;;
15629;SDS011;7914;50.842;0.166;2022-10-31T09:01:49;2.53;;;2.43;;
15629;SDS011;7914;50.842;0.166;2022-10-31T09:04:14;2.07;;;1.97;;
15629;SDS011;7914;50.842;0.166;2022-10-31T09:06:40;2.20;;;2.10;;
15629;SDS011;7914;50.842;0.166;2022-10-31T09:09:06;2.40;;;2.30;;
15629;SDS011;7914;50.842;0.166;2022-10-31T09:11:33;2.27;;;2.17;;
15629;SDS011;7914;50.842;0.166;2022-10-31T09:13:59;2.00;;;1.90;;
15629;SDS011;7914;50.842;0.166;2022-10-31T09:16:25;1.90;;;1.90;;
15629;SDS011;7914;50.842;0.166;2022-10-31T09:18:51;1.83;;;1.83;;
15629;SDS011;7914;50.842;0.166;2022-10-31T09:21:16;1.90;;;1.90;;
15629;SDS011;7914;50.842;0.166;2022-10-31T09:23:42;1.90;;;1.90;;
15629;SDS011;7914;50.842;0.166;2022-10-31T09:26:07;2.10;;;2.00;;
15629;SDS011;7914;50.842;0.166;2022-10-31T09:28:33;2.10;;;2.00;;
15629;SDS011;7914;50.842;0.166;2022-10-31T09:30:59;1.90;;;1.90;;
15629;SDS011;7914;50.842;0.166;2022-10-31T09:33:25;1.80;;;1.80;;
15629;SDS011;7914;50.842;0.166;2022-10-31T09:35:50;2.07;;;1.97;;
15629;SDS011;7914;50.842;0.166;2022-10-31T09:38:17;1.80;;;1.80;;
15629;SDS011;7914;50.842;0.166;2022-10-31T09:40:46;1.97;;;1.90;;
15629;SDS011;7914;50.842;0.166;2022-10-31T09:46:31;1.70;;;1.70;;
15629;SDS011;7914;50.842;0.166;2022-10-31T09:49:36;1.80;;;1.80;;
15629;SDS011;7914;50.842;0.166;2022-10-31T09:52:22;2.10;;;2.00;;
15629;SDS011;7914;50.842;0.166;2022-10-31T09:54:52;2.00;;;1.93;;
15629;SDS011;7914;50.842;0.166;2022-10-31T09:57:27;1.67;;;1.67;;
15629;SDS011;7914;50.842;0.166;2022-10-31T09:59:58;1.63;;;1.63;;
15629;SDS011;7914;50.842;0.166;2022-10-31T10:02:46;1.87;;;1.87;;
15629;SDS011;7914;50.842;0.166;2022-10-31T10:05:40;2.07;;;1.97;;
15629;SDS011;7914;50.842;0.166;2022-10-31T10:08:16;1.83;;;1.83;;
15629;SDS011;7914;50.842;0.166;2022-10-31T10:21:17;1.70;;;1.70;;
15629;SDS011;7914;50.842;0.166;2022-10-31T10:26:25;1.50;;;1.50;;
15629;SDS011;7914;50.842;0.166;2022-10-31T10:31:57;1.70;;;1.70;;
15629;SDS011;7914;50.842;0.166;2022-10-31T10:34:34;1.60;;;1.60;;
15629;SDS011;7914;50.842;0.166;2022-10-31T10:37:17;1.40;;;1.40;;
15629;SDS011;7914;50.842;0.166;2022-10-31T10:39:58;1.50;;;1.50;;
15629;SDS011;7914;50.842;0.166;2022-10-31T10:42:33;1.53;;;1.53;;
15629;SDS011;7914;50.842;0.166;2022-10-31T10:45:18;1.80;;;1.80;;
15629;SDS011;7914;50.842;0.166;2022-10-31T10:48:15;1.70;;;1.70;;
15629;SDS011;7914;50.842;0.166;2022-10-31T10:50:50;1.60;;;1.60;;
15629;SDS011;7914;50.842;0.166;2022-10-31T10:58:55;1.40;;;1.40;;
15629;SDS011;7914;50.842;0.166;2022-10-31T11:01:22;1.50;;;1.50;;
15629;SDS011;7914;50.842;0.166;2022-10-31T11:03:48;1.50;;;1.50;;
15629;SDS011;7914;50.842;0.166;2022-10-31T11:06:18;1.40;;;1.40;;
15629;SDS011;7914;50.842;0.166;2022-10-31T11:08:51;1.50;;;1.50;;
15629;SDS011;7914;50.842;0.166;2022-10-31T11:14:05;1.53;;;1.53;;
15629;SDS011;7914;50.842;0.166;2022-10-31T11:16:38;1.60;;;1.60;;
15629;SDS011;7914;50.842;0.166;2022-10-31T11:21:41;1.70;;;1.70;;
15629;SDS011;7914;50.842;0.166;2022-10-31T11:26:39;1.50;;;1.50;;
15629;SDS011;7914;50.842;0.166;2022-10-31T11:29:14;1.40;;;1.40;;
15629;SDS011;7914;50.842;0.166;2022-10-31T11:31:50;1.77;;;1.77;;
15629;SDS011;7914;50.842;0.166;2022-10-31T11:34:37;1.70;;;1.70;;
15629;SDS011;7914;50.842;0.166;2022-10-31T11:37:21;1.40;;;1.40;;
15629;SDS011;7914;50.842;0.166;2022-10-31T11:39:52;1.50;;;1.50;;
15629;SDS011;7914;50.842;0.166;2022-10-31T11:42:25;1.70;;;1.70;;
15629;SDS011;7914;50.842;0.166;2022-10-31T11:44:54;1.80;;;1.80;;
15629;SDS011;7914;50.842;0.166;2022-10-31T11:47:26;1.80;;;1.80;;
15629;SDS011;7914;50.842;0.166;2022-10-31T11:49:54;1.60;;;1.60;;
15629;SDS011;7914;50.842;0.166;2022-10-31T11:52:25;1.70;;;1.70;;
15629;SDS011;7914;50.842;0.166;2022-10-31T11:54:54;1.70;;;1.70;;
15629;SDS011;7914;50.842;0.166;2022-10-31T11:57:23;1.70;;;1.70;;
15629;SDS011;7914;50.842;0.166;2022-10-31T11:59:52;1.70;;;1.70;;
15629;SDS011;7914;50.842;0.166;2022-10-31T12:02:19;1.50;;;1.50;;
15629;SDS011;7914;50.842;0.166;2022-10-31T12:04:47;1.70;;;1.70;;
15629;SDS011;7914;50.842;0.166;2022-10-31T12:07:19;1.70;;;1.70;;
15629;SDS011;7914;50.842;0.166;2022-10-31T12:09:44;1.63;;;1.63;;
15629;SDS011;7914;50.842;0.166;2022-10-31T12:17:18;1.60;;;1.60;;
15629;SDS011;7914;50.842;0.166;2022-10-31T12:19:56;1.70;;;1.70;;
15629;SDS011;7914;50.842;0.166;2022-10-31T12:25:41;1.60;;;1.60;;
15629;SDS011;7914;50.842;0.166;2022-10-31T12:39:23;1.70;;;1.70;;
15629;SDS011;7914;50.842;0.166;2022-10-31T12:44:55;1.70;;;1.70;;
15629;SDS011;7914;50.842;0.166;2022-10-31T12:55:44;1.60;;;1.60;;
15629;SDS011;7914;50.842;0.166;2022-10-31T12:58:26;1.60;;;1.60;;
15629;SDS011;7914;50.842;0.166;2022-10-31T13:07:01;1.70;;;1.70;;
15629;SDS011;7914;50.842;0.166;2022-10-31T13:09:38;1.90;;;1.90;;
15629;SDS011;7914;50.842;0.166;2022-10-31T13:12:12;1.90;;;1.90;;
15629;SDS011;7914;50.842;0.166;2022-10-31T13:14:51;1.80;;;1.80;;
15629;SDS011;7914;50.842;0.166;2022-10-31T13:17:27;1.80;;;1.80;;
15629;SDS011;7914;50.842;0.166;2022-10-31T13:20:19;1.90;;;1.90;;
15629;SDS011;7914;50.842;0.166;2022-10-31T13:22:46;2.20;;;2.10;;
15629;SDS011;7914;50.842;0.166;2022-10-31T13:25:19;1.80;;;1.80;;
15629;SDS011;7914;50.842;0.166;2022-10-31T13:30:22;1.93;;;1.90;;
15629;SDS011;7914;50.842;0.166;2022-10-31T13:40:46;2.10;;;2.00;;
15629;SDS011;7914;50.842;0.166;2022-10-31T13:43:39;1.90;;;1.90;;
15629;SDS011;7914;50.842;0.166;2022-10-31T13:46:25;1.83;;;1.83;;
15629;SDS011;7914;50.842;0.166;2022-10-31T13:48:57;2.10;;;2.00;;
15629;SDS011;7914;50.842;0.166;2022-10-31T13:51:33;2.10;;;2.00;;
15629;SDS011;7914;50.842;0.166;2022-10-31T13:54:06;2.27;;;2.17;;
15629;SDS011;7914;50.842;0.166;2022-10-31T13:59:46;2.03;;;1.93;;
15629;SDS011;7914;50.842;0.166;2022-10-31T14:02:20;1.90;;;1.90;;
15629;SDS011;7914;50.842;0.166;2022-10-31T14:05:27;1.70;;;1.70;;
15629;SDS011;7914;50.842;0.166;2022-10-31T14:07:49;1.80;;;1.80;;
15629;SDS011;7914;50.842;0.166;2022-10-31T14:10:24;1.90;;;1.90;;
15629;SDS011;7914;50.842;0.166;2022-10-31T14:12:52;1.80;;;1.80;;
15629;SDS011;7914;50.842;0.166;2022-10-31T14:15:27;2.10;;;2.00;;
15629;SDS011;7914;50.842;0.166;2022-10-31T14:20:21;1.80;;;1.80;;
15629;SDS011;7914;50.842;0.166;2022-10-31T14:22:47;1.80;;;1.80;;
15629;SDS011;7914;50.842;0.166;2022-10-31T14:25:33;2.10;;;2.00;;
15629;SDS011;7914;50.842;0.166;2022-10-31T14:28:20;2.27;;;2.17;;
15629;SDS011;7914;50.842;0.166;2022-10-31T14:30:56;2.20;;;2.10;;
15629;SDS011;7914;50.842;0.166;2022-10-31T14:33:27;2.30;;;2.20;;
15629;SDS011;7914;50.842;0.166;2022-10-31T14:35:59;2.40;;;2.30;;
15629;SDS011;7914;50.842;0.166;2022-10-31T14:38:52;2.40;;;2.30;;
15629;SDS011;7914;50.842;0.166;2022-10-31T14:52:40;2.70;;;2.60;;
15629;SDS011;7914;50.842;0.166;2022-10-31T14:55:10;3.23;;;3.13;;
15629;SDS011;7914;50.842;0.166;2022-10-31T14:57:38;3.10;;;3.00;;
15629;SDS011;7914;50.842;0.166;2022-10-31T15:00:19;3.20;;;3.10;;
15629;SDS011;7914;50.842;0.166;2022-10-31T15:05:27;3.13;;;3.03;;
15629;SDS011;7914;50.842;0.166;2022-10-31T15:07:54;3.57;;;3.47;;
15629;SDS011;7914;50.842;0.166;2022-10-31T15:12:52;3.60;;;3.50;;
15629;SDS011;7914;50.842;0.166;2022-10-31T15:15:22;3.20;;;3.10;;
15629;SDS011;7914;50.842;0.166;2022-10-31T15:17:52;3.13;;;3.03;;
15629;SDS011;7914;50.842;0.166;2022-10-31T15:20:24;3.27;;;3.17;;
15629;SDS011;7914;50.842;0.166;2022-10-31T15:22:51;3.40;;;3.30;;
15629;SDS011;7914;50.842;0.166;2022-10-31T15:25:24;3.30;;;3.20;;
15629;SDS011;7914;50.842;0.166;2022-10-31T15:27:52;3.13;;;3.03;;
15629;SDS011;7914;50.842;0.166;2022-10-31T15:30:22;3.50;;;3.40;;
15629;SDS011;7914;50.842;0.166;2022-10-31T15:32:50;3.10;;;3.00;;
15629;SDS011;7914;50.842;0.166;2022-10-31T15:35:27;3.50;;;3.40;;
15629;SDS011;7914;50.842;0.166;2022-10-31T15:37:55;3.27;;;3.17;;
15629;SDS011;7914;50.842;0.166;2022-10-31T15:40:23;3.67;;;3.57;;
15629;SDS011;7914;50.842;0.166;2022-10-31T15:42:54;3.60;;;3.50;;
15629;SDS011;7914;50.842;0.166;2022-10-31T15:45:21;3.70;;;3.60;;
15629;SDS011;7914;50.842;0.166;2022-10-31T15:47:59;3.40;;;3.30;;
15629;SDS011;7914;50.842;0.166;2022-10-31T15:50:31;3.50;;;3.40;;
15629;SDS011;7914;50.842;0.166;2022-10-31T15:53:00;3.70;;;3.60;;
15629;SDS011;7914;50.842;0.166;2022-10-31T15:55:27;4.00;;;3.90;;
15629;SDS011;7914;50.842;0.166;2022-10-31T15:57:58;4.30;;;4.10;;
15629;SDS011;7914;50.842;0.166;2022-10-31T16:00:36;3.67;;;3.57;;
15629;SDS011;7914;50.842;0.166;2022-10-31T16:03:04;4.30;;;4.10;;
15629;SDS011;7914;50.842;0.166;2022-10-31T16:05:38;4.57;;;4.37;;
15629;SDS011;7914;50.842;0.166;2022-10-31T16:10:51;8.10;;;7.80;;
15629;SDS011;7914;50.842;0.166;2022-10-31T16:13:18;9.20;;;8.80;;
15629;SDS011;7914;50.842;0.166;2022-10-31T16:15:49;9.03;;;8.63;;
15629;SDS011;7914;50.842;0.166;2022-10-31T16:18:18;9.10;;;8.70;;
15629;SDS011;7914;50.842;0.166;2022-10-31T16:20:50;11.00;;;10.50;;
15629;SDS011;7914;50.842;0.166;2022-10-31T16:23:19;14.00;;;13.40;;
15629;SDS011;7914;50.842;0.166;2022-10-31T16:25:46;15.70;;;15.00;;
15629;SDS011;7914;50.842;0.166;2022-10-31T16:28:14;16.13;;;15.43;;
15629;SDS011;7914;50.842;0.166;2022-10-31T16:30:43;18.17;;;17.27;;
15629;SDS011;7914;50.842;0.166;2022-10-31T16:35:50;19.30;;;18.30;;
15629;SDS011;7914;50.842;0.166;2022-10-31T16:38:17;19.07;;;18.17;;
15629;SDS011;7914;50.842;0.166;2022-10-31T16:40:43;18.87;;;17.97;;
15629;SDS011;7914;50.842;0.166;2022-10-31T16:43:13;18.10;;;17.20;;
15629;SDS011;7914;50.842;0.166;2022-10-31T16:45:46;18.27;;;17.37;;
15629;SDS011;7914;50.842;0.166;2022-10-31T16:48:14;17.70;;;16.90;;
15629;SDS011;7914;50.842;0.166;2022-10-31T16:50:42;18.30;;;17.40;;
15629;SDS011;7914;50.842;0.166;2022-10-31T16:53:11;16.87;;;16.07;;
15629;SDS011;7914;50.842;0.166;2022-10-31T16:55:45;15.70;;;15.00;;
15629;SDS011;7914;50.842;0.166;2022-10-31T16:58:25;17.13;;;16.33;;
15629;SDS011;7914;50.842;0.166;2022-10-31T17:00:54;15.03;;;14.33;;
15629;SDS011;7914;50.842;0.166;2022-10-31T17:03:21;15.07;;;14.37;;
15629;SDS011;7914;50.842;0.166;2022-10-31T17:05:47;15.20;;;14.50;;
15629;SDS011;7914;50.842;0.166;2022-10-31T17:08:12;14.90;;;14.20;;
15629;SDS011;7914;50.842;0.166;2022-10-31T17:10:38;14.53;;;13.93;;
15629;SDS011;7914;50.842;0.166;2022-10-31T17:13:06;13.40;;;12.80;;
15629;SDS011;7914;50.842;0.166;2022-10-31T17:15:43;11.67;;;11.17;;
15629;SDS011;7914;50.842;0.166;2022-10-31T17:18:15;11.43;;;10.93;;
15629;SDS011;7914;50.842;0.166;2022-10-31T17:20:41;11.40;;;10.90;;
15629;SDS011;7914;50.842;0.166;2022-10-31T17:23:09;11.50;;;11.00;;
15629;SDS011;7914;50.842;0.166;2022-10-31T17:25:38;9.80;;;9.40;;
15629;SDS011;7914;50.842;0.166;2022-10-31T17:28:04;10.03;;;9.63;;
15629;SDS011;7914;50.842;0.166;2022-10-31T17:30:30;8.47;;;8.17;;